createdAt,value
2023-08-01T00:01:01.358Z,99.90
2023-08-01T00:03:30.295Z,99.90
2023-08-01T00:05:58.405Z,99.90
2023-08-01T00:08:26.190Z,99.90
2023-08-01T00:10:54.269Z,99.90
2023-08-01T00:13:22.116Z,99.90
2023-08-01T00:16:06.260Z,99.90
2023-08-01T00:18:35.643Z,99.90
2023-08-01T00:21:06.627Z,99.90
2023-08-01T00:23:34.452Z,99.90
2023-08-01T00:26:02.731Z,99.90
2023-08-01T00:28:32.445Z,99.90
2023-08-01T00:31:10.398Z,99.90
2023-08-01T00:33:38.413Z,99.90
2023-08-01T00:36:10.768Z,99.90
2023-08-01T00:38:38.880Z,99.90
2023-08-01T00:41:06.987Z,99.90
2023-08-01T00:43:35.163Z,99.90
2023-08-01T00:46:06.702Z,99.90
2023-08-01T00:48:34.898Z,99.90
2023-08-01T00:51:06.461Z,99.90
2023-08-01T00:53:34.766Z,99.90
2023-08-01T00:56:03.233Z,99.90
2023-08-01T00:58:31.068Z,99.90
2023-08-01T01:01:00.926Z,99.90
2023-08-01T01:03:29.695Z,99.90
2023-08-01T01:06:18.825Z,99.90
2023-08-01T01:08:47.189Z,99.90
2023-08-01T01:11:15.530Z,99.90
2023-08-01T01:13:43.657Z,99.90
2023-08-01T01:16:11.793Z,99.90
2023-08-01T01:18:39.583Z,99.90
2023-08-01T01:21:07.954Z,99.90
2023-08-01T01:23:36.454Z,99.90
2023-08-01T01:26:07.823Z,99.90
2023-08-01T01:28:37.016Z,99.90
2023-08-01T01:31:05.552Z,99.90
2023-08-01T01:33:35.354Z,99.90
2023-08-01T01:36:05.379Z,99.90
2023-08-01T01:38:33.208Z,99.90
2023-08-01T01:41:01.269Z,99.90
2023-08-01T01:43:29.213Z,99.90
2023-08-01T01:45:59.413Z,99.90
2023-08-01T01:48:27.212Z,99.90
2023-08-01T01:50:55.270Z,99.90
2023-08-01T01:53:24.333Z,99.90
2023-08-01T01:55:52.733Z,99.90
2023-08-01T01:58:22.734Z,99.90
2023-08-01T02:00:50.952Z,99.90
2023-08-01T02:03:18.775Z,99.90
2023-08-01T02:05:46.922Z,99.90
2023-08-01T02:08:15.011Z,99.90
2023-08-01T02:10:45.544Z,99.90
2023-08-01T02:13:13.259Z,99.90
2023-08-01T02:15:41.566Z,99.90
2023-08-01T02:18:09.416Z,99.90
2023-08-01T02:20:37.484Z,99.90
2023-08-01T02:23:05.509Z,99.90
2023-08-01T02:25:33.744Z,99.90
2023-08-01T02:28:04.210Z,99.90
2023-08-01T02:30:32.315Z,99.90
2023-08-01T02:33:02.982Z,99.90
2023-08-01T02:35:31.561Z,99.90
2023-08-01T02:37:59.437Z,99.90
2023-08-01T02:40:28.037Z,99.90
2023-08-01T02:42:56.014Z,99.90
2023-08-01T02:45:27.054Z,99.90
2023-08-01T02:47:57.161Z,99.90
2023-08-01T02:50:27.352Z,99.90
2023-08-01T02:52:55.664Z,99.90
2023-08-01T02:55:23.781Z,99.90
2023-08-01T02:57:52.041Z,99.90
2023-08-01T03:00:20.426Z,99.90
2023-08-01T03:02:48.697Z,99.90
2023-08-01T03:05:17.399Z,99.90
2023-08-01T03:07:45.492Z,99.90
2023-08-01T03:10:16.996Z,99.90
2023-08-01T03:12:48.012Z,99.90
2023-08-01T03:15:18.294Z,99.90
2023-08-01T03:17:46.226Z,99.90
2023-08-01T03:20:14.427Z,99.90
2023-08-01T03:22:42.645Z,99.90
2023-08-01T03:25:11.002Z,99.90
2023-08-01T03:27:38.770Z,99.90
2023-08-01T03:30:10.203Z,99.90
2023-08-01T03:32:38.370Z,99.90
2023-08-01T03:35:07.127Z,99.90
2023-08-01T03:37:35.098Z,99.90
2023-08-01T03:40:03.543Z,99.90
2023-08-01T03:42:31.436Z,99.90
2023-08-01T03:45:00.114Z,99.90
2023-08-01T03:47:28.084Z,99.90
2023-08-01T03:49:56.416Z,99.90
2023-08-01T03:52:24.268Z,99.90
2023-08-01T03:54:55.721Z,99.90
2023-08-01T03:57:23.888Z,99.90
2023-08-01T03:59:52.039Z,99.90
2023-08-01T04:02:20.094Z,99.90
2023-08-01T04:04:48.190Z,99.90
2023-08-01T04:07:16.184Z,99.90
2023-08-01T04:09:44.788Z,99.90
2023-08-01T04:12:12.796Z,99.90
2023-08-01T04:14:41.638Z,99.90
2023-08-01T04:17:09.560Z,99.90
2023-08-01T04:19:37.985Z,99.90
2023-08-01T04:22:05.911Z,99.90
2023-08-01T04:24:34.395Z,99.90
2023-08-01T04:27:02.270Z,99.90
2023-08-01T04:29:32.700Z,99.90
2023-08-01T04:32:00.771Z,99.90
2023-08-01T04:34:31.520Z,99.90
2023-08-01T04:37:01.768Z,99.90
2023-08-01T04:39:29.981Z,99.90
2023-08-01T04:41:57.962Z,99.90
2023-08-01T04:44:26.170Z,99.90
2023-08-01T04:46:54.944Z,99.90
2023-08-01T04:49:23.549Z,99.90
2023-08-01T04:51:51.970Z,99.90
2023-08-01T04:54:20.147Z,99.90
2023-08-01T04:56:48.024Z,99.90
2023-08-01T04:59:16.099Z,99.90
2023-08-01T05:01:46.110Z,99.90
2023-08-01T05:04:14.192Z,99.90
2023-08-01T05:06:42.286Z,99.90
2023-08-01T05:09:10.744Z,99.90
2023-08-01T05:11:38.715Z,99.90
2023-08-01T05:14:07.058Z,99.90
2023-08-01T05:16:34.930Z,99.90
2023-08-01T05:19:03.131Z,99.90
2023-08-01T05:21:30.989Z,99.90
2023-08-01T05:23:59.115Z,99.90
2023-08-01T05:26:26.923Z,99.90
2023-08-01T05:28:54.957Z,99.90
2023-08-01T05:31:22.815Z,99.90
2023-08-01T05:33:51.004Z,99.90
2023-08-01T05:36:18.743Z,99.90
2023-08-01T05:38:48.939Z,99.90
2023-08-01T05:41:16.865Z,99.90
2023-08-01T05:43:44.994Z,99.90
2023-08-01T05:46:12.946Z,99.90
2023-08-01T05:48:43.471Z,99.90
2023-08-01T05:51:11.355Z,99.90
2023-08-01T05:53:39.438Z,99.90
2023-08-01T05:58:34.630Z,99.90
2023-08-01T06:01:03.095Z,99.90
2023-08-01T06:03:30.972Z,99.90
2023-08-01T06:05:59.143Z,99.90
2023-08-01T06:08:27.326Z,99.90
2023-08-01T06:10:55.528Z,99.90
2023-08-01T06:13:23.354Z,99.90
2023-08-01T06:15:51.349Z,99.90
2023-08-01T06:18:19.107Z,99.90
2023-08-01T06:20:47.216Z,99.90
2023-08-01T06:23:17.218Z,99.90
2023-08-01T06:25:45.342Z,99.90
2023-08-01T06:28:13.250Z,99.90
2023-08-01T06:30:41.355Z,99.90
2023-08-01T06:33:09.198Z,99.90
2023-08-01T06:35:37.334Z,99.90
2023-08-01T06:38:05.164Z,99.90
2023-08-01T06:40:33.161Z,99.90
2023-08-01T06:43:01.079Z,99.90
2023-08-01T06:45:29.218Z,99.90
2023-08-01T06:47:57.226Z,99.90
2023-08-01T06:50:25.321Z,99.90
2023-08-01T06:52:53.095Z,99.90
2023-08-01T06:55:21.185Z,99.90
2023-08-01T06:57:48.916Z,99.90
2023-08-01T07:00:17.606Z,99.90
2023-08-01T07:02:45.572Z,99.90
2023-08-01T07:05:15.923Z,99.90
2023-08-01T07:07:43.777Z,99.90
2023-08-01T07:10:12.250Z,99.90
2023-08-01T07:12:40.151Z,99.90
2023-08-01T07:15:09.075Z,99.90
2023-08-01T07:17:36.871Z,99.90
2023-08-01T07:20:05.308Z,99.90
2023-08-01T07:22:33.060Z,99.90
2023-08-01T07:25:01.211Z,99.90
2023-08-01T07:27:29.075Z,99.90
2023-08-01T07:29:57.091Z,99.90
2023-08-01T07:32:25.150Z,99.90
2023-08-01T07:34:56.855Z,99.90
2023-08-01T07:37:24.777Z,99.90
2023-08-01T07:39:52.880Z,99.90
2023-08-01T07:42:23.013Z,99.90
2023-08-01T07:44:51.536Z,99.90
2023-08-01T07:47:19.519Z,99.90
2023-08-01T07:49:47.897Z,99.90
2023-08-01T07:52:17.096Z,99.90
2023-08-01T07:54:45.751Z,99.90
2023-08-01T07:57:13.753Z,99.90
2023-08-01T07:59:42.168Z,99.90
2023-08-01T08:02:10.050Z,99.90
2023-08-01T08:04:38.160Z,99.90
2023-08-01T08:07:06.493Z,99.90
2023-08-01T08:09:34.533Z,99.90
2023-08-01T08:12:02.305Z,99.90
2023-08-01T08:14:31.313Z,99.90
2023-08-01T08:16:59.226Z,99.90
2023-08-01T08:19:27.408Z,99.90
2023-08-01T08:21:55.211Z,96.60
2023-08-01T08:24:23.592Z,94.10
2023-08-01T08:26:51.356Z,92.20
2023-08-01T08:29:19.562Z,90.30
2023-08-01T08:31:47.762Z,88.50
2023-08-01T08:34:16.025Z,86.60
2023-08-01T08:36:44.139Z,84.80
2023-08-01T08:39:12.413Z,83.90
2023-08-01T08:41:49.086Z,82.90
2023-08-01T08:44:18.665Z,81.30
2023-08-01T08:46:52.647Z,79.80
2023-08-01T08:49:22.630Z,77.60
2023-08-01T08:51:50.899Z,75.10
2023-08-01T08:54:20.663Z,74.10
2023-08-01T08:56:49.918Z,73.20
2023-08-01T08:59:18.371Z,70.70
2023-08-01T09:01:47.211Z,69.70
2023-08-01T09:04:15.324Z,69.30
2023-08-01T09:06:52.637Z,69.40
2023-08-01T09:09:20.752Z,69.10
2023-08-01T09:11:53.279Z,68.20
2023-08-01T09:14:21.443Z,68.10
2023-08-01T09:16:49.772Z,67.90
2023-08-01T09:19:23.030Z,68.00
2023-08-01T09:21:53.160Z,68.00
2023-08-01T09:24:22.341Z,68.00
2023-08-01T09:26:50.730Z,68.40
2023-08-01T09:29:21.077Z,68.50
2023-08-01T09:31:50.576Z,69.10
2023-08-01T09:34:29.786Z,69.00
2023-08-01T09:37:01.919Z,69.50
2023-08-01T09:39:30.148Z,70.10
2023-08-01T09:42:02.533Z,70.20
2023-08-01T09:44:31.647Z,70.60
2023-08-01T09:47:04.704Z,70.50
2023-08-01T09:49:33.239Z,70.20
2023-08-01T09:52:02.875Z,70.40
2023-08-01T09:54:31.094Z,70.30
2023-08-01T09:56:59.536Z,70.40
2023-08-01T09:59:28.221Z,68.70
2023-08-01T10:01:58.366Z,66.80
2023-08-01T10:04:34.874Z,65.00
2023-08-01T10:07:09.053Z,64.70
2023-08-01T10:09:37.589Z,64.40
2023-08-01T10:12:06.891Z,64.40
2023-08-01T10:14:39.715Z,64.80
2023-08-01T10:17:08.284Z,65.20
2023-08-01T10:19:36.991Z,65.60
2023-08-01T10:22:08.571Z,65.50
2023-08-01T10:24:38.182Z,65.40
2023-08-01T10:27:21.150Z,65.00
2023-08-01T10:30:02.991Z,64.70
2023-08-01T10:32:35.317Z,64.60
2023-08-01T10:35:04.249Z,64.90
2023-08-01T10:37:48.365Z,65.10
2023-08-01T10:40:16.796Z,64.60
2023-08-01T10:42:46.559Z,64.60
2023-08-01T10:45:26.346Z,64.40
2023-08-01T10:47:55.943Z,64.50
2023-08-01T10:50:24.107Z,64.30
2023-08-01T10:53:04.452Z,64.00
2023-08-01T10:55:47.248Z,63.10
2023-08-01T10:58:15.241Z,62.70
2023-08-01T11:00:44.284Z,62.30
2023-08-01T11:03:12.407Z,61.30
2023-08-01T11:05:40.619Z,60.90
2023-08-01T11:08:08.634Z,60.60
2023-08-01T11:10:36.992Z,60.00
2023-08-01T11:13:04.928Z,59.30
2023-08-01T11:15:33.219Z,58.40
2023-08-01T11:18:01.184Z,57.60
2023-08-01T11:20:30.113Z,56.70
2023-08-01T11:23:02.225Z,56.50
2023-08-01T11:25:38.716Z,56.70
2023-08-01T11:28:08.573Z,56.90
2023-08-01T11:30:40.723Z,56.80
2023-08-01T11:33:37.940Z,56.30
2023-08-01T11:36:06.749Z,56.00
2023-08-01T11:38:35.867Z,56.30
2023-08-01T11:41:05.396Z,56.20
2023-08-01T11:43:40.914Z,56.00
2023-08-01T11:46:09.808Z,55.80
2023-08-01T11:48:38.144Z,55.80
2023-08-01T11:51:06.534Z,55.50
2023-08-01T11:53:39.950Z,55.60
2023-08-01T11:56:08.986Z,55.60
2023-08-01T11:58:42.202Z,55.30
2023-08-01T12:01:12.742Z,55.60
2023-08-01T12:03:55.165Z,55.10
2023-08-01T12:06:25.020Z,54.20
2023-08-01T12:08:54.093Z,54.70
2023-08-01T12:11:25.086Z,54.00
2023-08-01T12:14:15.281Z,54.20
2023-08-01T12:16:48.010Z,54.40
2023-08-01T12:19:19.375Z,54.20
2023-08-01T12:21:50.471Z,54.20
2023-08-01T12:24:18.473Z,54.20
2023-08-01T12:26:46.556Z,54.70
2023-08-01T12:29:14.507Z,54.80
2023-08-01T12:31:42.625Z,54.90
2023-08-01T12:34:10.473Z,54.70
2023-08-01T12:36:38.759Z,54.70
2023-08-01T12:39:11.673Z,55.00
2023-08-01T12:41:40.326Z,55.30
2023-08-01T12:44:08.202Z,55.40
2023-08-01T12:46:36.907Z,55.20
2023-08-01T12:49:05.129Z,55.30
2023-08-01T12:51:33.290Z,55.50
2023-08-01T12:54:03.723Z,55.70
2023-08-01T12:56:32.872Z,55.70
2023-08-01T12:59:00.701Z,55.70
2023-08-01T13:01:28.784Z,55.80
2023-08-01T13:03:56.670Z,55.80
2023-08-01T13:06:24.879Z,55.90
2023-08-01T13:08:52.787Z,56.10
2023-08-01T13:11:20.837Z,56.10
2023-08-01T13:13:48.710Z,56.10
2023-08-01T13:16:19.118Z,56.00
2023-08-01T13:18:49.139Z,56.00
2023-08-01T13:21:17.317Z,55.90
2023-08-01T13:23:45.340Z,55.80
2023-08-01T13:26:13.809Z,55.80
2023-08-01T13:28:41.675Z,55.40
2023-08-01T13:31:09.886Z,55.30
2023-08-01T13:33:37.727Z,55.30
2023-08-01T13:36:05.973Z,55.00
2023-08-01T13:38:33.714Z,55.10
2023-08-01T13:41:02.817Z,55.10
2023-08-01T13:43:30.800Z,54.90
2023-08-01T13:45:59.314Z,54.30
2023-08-01T13:48:27.405Z,53.90
2023-08-01T13:50:59.745Z,53.90
2023-08-01T13:53:27.737Z,53.90
2023-08-01T13:55:56.674Z,53.60
2023-08-01T13:58:24.618Z,53.40
2023-08-01T14:00:52.827Z,53.60
2023-08-01T14:03:20.681Z,54.00
2023-08-01T14:05:49.041Z,54.00
2023-08-01T14:08:16.960Z,53.70
2023-08-01T14:10:45.085Z,53.60
2023-08-01T14:13:12.891Z,53.50
2023-08-01T14:15:40.933Z,53.80
2023-08-01T14:18:09.295Z,54.20
2023-08-01T14:20:37.514Z,54.40
2023-08-01T14:23:07.518Z,54.60
2023-08-01T14:25:35.789Z,54.80
2023-08-01T14:28:03.925Z,54.70
2023-08-01T14:30:32.164Z,54.30
2023-08-01T14:33:07.065Z,54.30
2023-08-01T14:35:36.586Z,54.00
2023-08-01T14:38:05.257Z,53.70
2023-08-01T14:40:36.763Z,53.70
2023-08-01T14:43:04.620Z,53.30
2023-08-01T14:45:32.682Z,53.40
2023-08-01T14:48:00.691Z,53.20
2023-08-01T14:50:28.840Z,53.20
2023-08-01T14:52:56.573Z,53.00
2023-08-01T14:55:24.638Z,54.00
2023-08-01T14:57:52.456Z,53.50
2023-08-01T15:00:20.595Z,53.60
2023-08-01T15:02:49.751Z,54.00
2023-08-01T15:05:18.343Z,54.20
2023-08-01T15:07:46.126Z,54.20
2023-08-01T15:10:14.321Z,53.90
2023-08-01T15:12:42.170Z,53.70
2023-08-01T15:15:10.716Z,53.70
2023-08-01T15:17:38.523Z,53.60
2023-08-01T15:20:07.115Z,53.40
2023-08-01T15:22:37.142Z,53.40
2023-08-01T15:25:05.238Z,53.50
2023-08-01T15:27:33.406Z,53.80
2023-08-01T15:30:01.565Z,54.10
2023-08-01T15:32:29.733Z,54.50
2023-08-01T15:34:57.526Z,54.70
2023-08-01T15:37:25.715Z,55.00
2023-08-01T15:39:55.778Z,55.20
2023-08-01T15:42:23.976Z,55.20
2023-08-01T15:44:51.793Z,55.50
2023-08-01T15:47:20.117Z,55.30
2023-08-01T15:49:48.255Z,55.40
2023-08-01T15:52:18.510Z,56.60
2023-08-01T15:54:46.352Z,58.00
2023-08-01T15:57:14.673Z,59.40
2023-08-01T15:59:42.530Z,60.50
2023-08-01T16:02:11.049Z,61.60
2023-08-01T16:04:38.804Z,62.40
2023-08-01T16:07:07.057Z,63.10
2023-08-01T16:09:35.415Z,63.50
2023-08-01T16:12:06.531Z,63.80
2023-08-01T16:14:41.147Z,64.30
2023-08-01T16:17:09.811Z,64.40
2023-08-01T16:19:37.672Z,64.40
2023-08-01T16:22:06.540Z,64.20
2023-08-01T16:24:34.388Z,64.20
2023-08-01T16:27:02.488Z,64.40
2023-08-01T16:29:30.378Z,65.10
2023-08-01T16:31:58.694Z,66.20
2023-08-01T16:34:26.488Z,67.30
2023-08-01T16:36:54.645Z,68.60
2023-08-01T16:39:22.454Z,69.70
2023-08-01T16:41:50.525Z,71.10
2023-08-01T16:44:23.098Z,72.50
2023-08-01T16:46:57.688Z,73.90
2023-08-01T16:50:09.121Z,75.40
2023-08-01T16:53:00.224Z,77.10
2023-08-01T16:59:13.866Z,80.40
2023-08-01T17:02:19.240Z,83.00
2023-08-01T17:05:20.078Z,85.90
2023-08-01T17:08:01.104Z,88.40
2023-08-01T17:10:54.616Z,90.40
2023-08-01T17:13:24.162Z,91.60
2023-08-01T17:15:53.488Z,92.40
2023-08-01T17:18:22.542Z,93.10
2023-08-01T17:20:51.621Z,94.10
2023-08-01T17:23:22.567Z,94.40
2023-08-01T17:25:51.377Z,94.80
2023-08-01T17:28:20.256Z,95.10
2023-08-01T17:30:49.003Z,95.40
2023-08-01T17:33:20.733Z,95.60
2023-08-01T17:35:49.843Z,95.80
2023-08-01T17:38:21.533Z,96.10
2023-08-01T17:40:50.297Z,96.20
2023-08-01T17:43:18.351Z,96.30
2023-08-01T17:45:47.317Z,96.30
2023-08-01T17:48:26.460Z,96.60
2023-08-01T17:51:06.471Z,96.70
2023-08-01T17:53:40.108Z,97.00
2023-08-01T17:56:43.759Z,97.30
2023-08-01T17:59:12.018Z,97.60
2023-08-01T18:01:40.469Z,98.00
2023-08-01T18:04:08.437Z,98.60
2023-08-01T18:06:36.674Z,99.00
2023-08-01T18:09:06.798Z,99.70
2023-08-01T18:11:34.964Z,99.90
2023-08-01T18:14:03.034Z,99.90
2023-08-01T18:16:33.557Z,99.90
2023-08-01T18:19:01.475Z,99.90
2023-08-01T18:21:29.644Z,99.90
2023-08-01T18:23:57.463Z,99.90
2023-08-01T18:26:25.856Z,99.90
2023-08-01T18:28:54.875Z,99.90
2023-08-01T18:31:24.413Z,99.90
2023-08-01T18:33:52.739Z,99.90
2023-08-01T18:36:22.611Z,99.90
2023-08-01T18:41:23.374Z,99.90
2023-08-01T18:43:53.289Z,99.90
2023-08-01T18:46:22.492Z,99.90
2023-08-01T18:48:53.819Z,99.90
2023-08-01T18:51:23.571Z,99.90
2023-08-01T18:53:51.864Z,99.90
2023-08-01T18:56:20.148Z,99.90
2023-08-01T18:58:49.455Z,99.90
2023-08-01T19:01:23.970Z,99.90
2023-08-01T19:03:56.786Z,99.90
2023-08-01T19:06:27.085Z,99.90
2023-08-01T19:09:05.797Z,99.90
2023-08-01T19:11:43.803Z,99.90
2023-08-01T19:14:12.130Z,99.90
2023-08-01T19:16:40.385Z,99.90
2023-08-01T19:19:08.948Z,99.90
2023-08-01T19:21:36.878Z,99.90
2023-08-01T19:24:05.196Z,99.90
2023-08-01T19:26:33.157Z,99.90
2023-08-01T19:29:01.342Z,99.90
2023-08-01T19:31:29.133Z,99.90
2023-08-01T19:33:57.562Z,99.90
2023-08-01T19:36:25.442Z,99.90
2023-08-01T19:38:55.688Z,99.90
2023-08-01T19:41:25.681Z,99.90
2023-08-01T19:43:53.721Z,99.90
2023-08-01T19:46:22.684Z,99.90
2023-08-01T19:48:50.829Z,99.90
2023-08-01T19:51:19.042Z,99.90
2023-08-01T19:53:47.183Z,99.90
2023-08-01T19:56:18.129Z,99.90
2023-08-01T19:58:46.251Z,99.90
2023-08-01T20:01:14.131Z,99.90
2023-08-01T20:03:42.548Z,99.90
2023-08-01T20:06:10.759Z,99.90
2023-08-01T20:08:39.150Z,99.90
2023-08-01T20:11:07.209Z,99.90
2023-08-01T20:13:35.552Z,99.90
2023-08-01T20:16:03.899Z,99.90
2023-08-01T20:18:32.037Z,99.90
2023-08-01T20:20:59.925Z,99.90
2023-08-01T20:23:28.397Z,99.90
2023-08-01T20:25:57.044Z,99.90
2023-08-01T20:30:52.864Z,99.90
2023-08-01T20:33:23.625Z,99.90
2023-08-01T20:35:58.111Z,99.90
2023-08-01T20:38:27.171Z,99.90
2023-08-01T20:40:55.450Z,99.90
2023-08-01T20:43:27.142Z,99.90
2023-08-01T20:45:57.505Z,99.90
2023-08-01T20:48:25.916Z,99.90
2023-08-01T20:50:53.890Z,99.90
2023-08-01T20:53:22.137Z,99.90
2023-08-01T20:55:50.126Z,99.90
2023-08-01T20:58:20.121Z,99.90
2023-08-01T21:00:48.166Z,99.90
2023-08-01T21:03:17.234Z,99.90
2023-08-01T21:05:45.117Z,99.90
2023-08-01T21:08:13.142Z,99.90
2023-08-01T21:10:40.918Z,99.90
2023-08-01T21:13:09.008Z,99.90
2023-08-01T21:15:36.955Z,99.90
2023-08-01T21:20:57.025Z,99.90
2023-08-01T21:23:25.285Z,99.90
2023-08-01T21:25:53.297Z,99.90
2023-08-01T21:28:21.610Z,99.90
2023-08-01T21:30:51.632Z,99.90
2023-08-01T21:33:20.617Z,99.90
2023-08-01T21:35:48.810Z,99.90
2023-08-01T21:38:17.198Z,99.90
2023-08-01T21:40:44.953Z,99.90
2023-08-01T21:43:13.269Z,99.90
2023-08-01T21:45:41.521Z,99.90
2023-08-01T21:48:09.735Z,99.90
2023-08-01T21:50:38.068Z,99.90
2023-08-01T21:53:06.213Z,99.90
2023-08-01T21:55:34.390Z,99.90
2023-08-01T21:58:02.627Z,99.90
2023-08-01T22:00:30.643Z,99.90
2023-08-01T22:02:59.339Z,99.90
2023-08-01T22:05:27.708Z,99.90
2023-08-01T22:07:55.868Z,99.90
2023-08-01T22:10:27.839Z,99.90
2023-08-01T22:12:56.897Z,99.90
2023-08-01T22:15:28.891Z,99.90
2023-08-01T22:17:58.306Z,99.90
2023-08-01T22:20:26.495Z,99.90
2023-08-01T22:22:55.092Z,99.90
2023-08-01T22:25:23.339Z,99.90
2023-08-01T22:27:52.765Z,99.90
2023-08-01T22:30:21.080Z,99.90
2023-08-01T22:32:49.532Z,99.90
2023-08-01T22:35:17.689Z,99.90
2023-08-01T22:37:45.829Z,99.90
2023-08-01T22:40:13.677Z,99.90
2023-08-01T22:42:41.980Z,99.90
2023-08-01T22:45:12.614Z,99.90
2023-08-01T22:47:41.231Z,99.90
2023-08-01T22:50:09.650Z,99.90
2023-08-01T22:52:39.667Z,99.90
2023-08-01T22:55:09.751Z,99.90
2023-08-01T22:57:37.874Z,99.90
2023-08-01T23:00:06.837Z,99.90
2023-08-01T23:02:41.007Z,99.90
2023-08-01T23:05:13.267Z,99.90
2023-08-01T23:07:41.515Z,99.90
2023-08-01T23:10:09.702Z,99.90
2023-08-01T23:12:37.857Z,99.90
2023-08-01T23:15:06.471Z,99.90
2023-08-01T23:17:35.387Z,99.90
2023-08-01T23:20:04.403Z,99.90
2023-08-01T23:22:34.027Z,99.90
2023-08-01T23:25:02.169Z,99.90
2023-08-01T23:27:31.397Z,99.90
2023-08-01T23:30:01.551Z,99.90
2023-08-01T23:32:29.662Z,99.90
2023-08-01T23:34:57.484Z,99.90
2023-08-01T23:37:25.614Z,99.90
2023-08-01T23:39:55.551Z,99.90
2023-08-01T23:42:24.514Z,99.90
2023-08-01T23:44:52.310Z,99.90
2023-08-01T23:47:20.415Z,99.90
2023-08-01T23:49:48.671Z,99.90
2023-08-01T23:52:16.941Z,99.90
2023-08-01T23:54:47.055Z,99.90
2023-08-01T23:57:17.256Z,99.90
2023-08-01T23:59:46.641Z,99.90
